createdAt,value
2023-04-28T00:02:24.791Z,78.83
2023-04-28T00:04:52.884Z,78.90
2023-04-28T00:07:21.283Z,78.99
2023-04-28T00:09:49.110Z,79.06
2023-04-28T00:12:16.852Z,79.10
2023-04-28T00:14:44.771Z,79.24
2023-04-28T00:17:12.543Z,79.42
2023-04-28T00:19:40.497Z,79.60
2023-04-28T00:22:08.795Z,79.72
2023-04-28T00:24:37.257Z,79.77
2023-04-28T00:27:05.034Z,79.73
2023-04-28T00:29:32.930Z,79.81
2023-04-28T00:32:00.844Z,79.88
2023-04-28T00:34:30.085Z,79.93
2023-04-28T00:36:57.973Z,80.00
2023-04-28T00:39:27.790Z,80.07
2023-04-28T00:41:56.024Z,80.14
2023-04-28T00:44:23.865Z,80.18
2023-04-28T00:46:51.705Z,80.26
2023-04-28T00:49:19.590Z,80.42
2023-04-28T00:51:47.301Z,80.55
2023-04-28T00:54:15.343Z,80.64
2023-04-28T00:56:43.747Z,80.70
2023-04-28T00:59:11.592Z,80.75
2023-04-28T01:01:39.395Z,80.81
2023-04-28T01:04:07.689Z,80.87
2023-04-28T01:06:37.495Z,80.89
2023-04-28T01:09:07.534Z,80.89
2023-04-28T01:11:37.540Z,80.87
2023-04-28T01:14:09.577Z,80.84
2023-04-28T01:16:40.823Z,80.80
2023-04-28T01:19:17.331Z,80.77
2023-04-28T01:21:45.411Z,80.76
2023-04-28T01:24:19.097Z,80.84
2023-04-28T01:26:47.088Z,80.94
2023-04-28T01:29:14.868Z,81.03
2023-04-28T01:31:42.953Z,81.13
2023-04-28T01:34:11.298Z,81.17
2023-04-28T01:36:39.376Z,81.13
2023-04-28T01:39:07.649Z,81.22
2023-04-28T01:41:35.433Z,81.29
2023-04-28T01:44:06.279Z,81.39
2023-04-28T01:46:34.934Z,81.50
2023-04-28T01:49:02.849Z,81.54
2023-04-28T01:51:31.300Z,81.64
2023-04-28T01:53:59.058Z,81.61
2023-04-28T01:56:26.818Z,81.60
2023-04-28T01:58:56.144Z,81.60
2023-04-28T02:01:24.259Z,81.59
2023-04-28T02:03:52.412Z,81.57
2023-04-28T02:06:20.581Z,81.51
2023-04-28T02:08:48.428Z,81.49
2023-04-28T02:11:16.250Z,81.46
2023-04-28T02:13:44.107Z,81.43
2023-04-28T02:16:12.192Z,81.42
2023-04-28T02:18:40.574Z,81.41
2023-04-28T02:21:11.000Z,81.47
2023-04-28T02:23:40.083Z,81.54
2023-04-28T02:26:08.345Z,81.57
2023-04-28T02:28:36.174Z,81.66
2023-04-28T02:31:08.702Z,81.68
2023-04-28T02:33:37.749Z,81.66
2023-04-28T02:36:06.866Z,81.66
2023-04-28T02:38:34.973Z,81.66
2023-04-28T02:41:09.379Z,81.72
2023-04-28T02:43:37.701Z,81.80
2023-04-28T02:46:05.975Z,81.85
2023-04-28T02:48:35.814Z,81.80
2023-04-28T02:51:03.611Z,81.73
2023-04-28T02:53:32.001Z,81.66
2023-04-28T02:56:02.081Z,81.61
2023-04-28T02:58:30.227Z,81.53
2023-04-28T03:00:58.470Z,81.49
2023-04-28T03:03:26.897Z,81.51
2023-04-28T03:05:56.877Z,81.53
2023-04-28T03:08:24.732Z,81.57
2023-04-28T03:10:54.297Z,81.67
2023-04-28T03:13:22.064Z,81.74
2023-04-28T03:15:50.350Z,81.77
2023-04-28T03:18:18.842Z,81.81
2023-04-28T03:20:46.764Z,81.84
2023-04-28T03:23:14.584Z,81.93
2023-04-28T03:25:42.492Z,82.03
2023-04-28T03:28:10.807Z,82.15
2023-04-28T03:30:38.648Z,82.21
2023-04-28T03:33:06.993Z,82.21
2023-04-28T03:35:34.817Z,82.19
2023-04-28T03:38:03.044Z,82.21
2023-04-28T03:40:31.317Z,82.26
2023-04-28T03:43:19.108Z,82.29
2023-04-28T03:46:09.921Z,82.34
2023-04-28T03:48:37.953Z,82.44
2023-04-28T03:51:06.040Z,82.57
2023-04-28T03:53:33.913Z,82.74
2023-04-28T03:56:01.841Z,82.90
2023-04-28T03:58:29.709Z,83.04
2023-04-28T04:00:57.544Z,83.20
2023-04-28T04:03:27.165Z,83.36
2023-04-28T04:05:57.059Z,83.49
2023-04-28T04:08:25.498Z,83.56
2023-04-28T04:10:54.971Z,83.61
2023-04-28T04:13:23.142Z,83.69
2023-04-28T04:15:52.754Z,83.69
2023-04-28T04:18:21.418Z,83.75
2023-04-28T04:21:13.009Z,83.83
2023-04-28T04:23:41.247Z,83.95
2023-04-28T04:26:08.953Z,84.03
2023-04-28T04:28:37.152Z,84.06
2023-04-28T04:31:06.415Z,84.15
2023-04-28T04:33:34.761Z,84.22
2023-04-28T04:36:03.304Z,84.25
2023-04-28T04:38:31.550Z,84.32
2023-04-28T04:41:02.148Z,84.30
2023-04-28T04:43:30.167Z,84.32
2023-04-28T04:45:57.974Z,84.29
2023-04-28T04:48:25.964Z,84.02
2023-04-28T04:50:53.838Z,83.57
2023-04-28T04:53:21.626Z,83.22
2023-04-28T04:55:49.579Z,82.84
2023-04-28T04:58:17.974Z,82.35
2023-04-28T05:01:04.851Z,81.93
2023-04-28T05:03:33.279Z,81.48
2023-04-28T05:06:02.950Z,81.21
2023-04-28T05:08:36.296Z,80.88
2023-04-28T05:11:05.058Z,80.38
2023-04-28T05:13:32.800Z,80.04
2023-04-28T05:16:02.639Z,79.55
2023-04-28T05:18:56.481Z,79.46
2023-04-28T05:21:24.302Z,78.79
2023-04-28T05:23:52.514Z,78.11
2023-04-28T05:26:20.818Z,77.64
2023-04-28T05:28:48.728Z,77.51
2023-04-28T05:31:16.574Z,76.80
2023-04-28T05:33:44.510Z,75.94
2023-04-28T05:36:13.103Z,75.37
2023-04-28T05:38:41.063Z,74.51
2023-04-28T05:41:08.928Z,74.08
2023-04-28T05:43:37.165Z,73.81
2023-04-28T05:46:09.752Z,73.18
2023-04-28T05:48:43.997Z,72.83
2023-04-28T05:51:12.000Z,72.42
2023-04-28T05:53:40.050Z,71.84
2023-04-28T05:56:08.388Z,71.70
2023-04-28T05:58:36.249Z,71.12
2023-04-28T06:01:05.114Z,70.50
2023-04-28T06:03:33.983Z,70.75
2023-04-28T06:06:03.073Z,70.29
2023-04-28T06:08:31.872Z,69.15
2023-04-28T06:10:59.643Z,68.33
2023-04-28T06:13:27.837Z,68.85
2023-04-28T06:15:56.007Z,68.28
2023-04-28T06:18:24.444Z,67.93
2023-04-28T06:20:52.244Z,66.81
2023-04-28T06:23:21.192Z,66.46
2023-04-28T06:25:50.201Z,65.55
2023-04-28T06:28:18.085Z,64.35
2023-04-28T06:30:46.408Z,63.79
2023-04-28T06:33:14.160Z,63.77
2023-04-28T06:35:42.135Z,62.52
2023-04-28T06:38:10.197Z,62.26
2023-04-28T06:40:38.258Z,61.66
2023-04-28T06:43:07.369Z,59.96
2023-04-28T06:46:01.632Z,60.11
2023-04-28T06:48:29.460Z,60.22
2023-04-28T06:50:57.214Z,59.59
2023-04-28T06:53:24.947Z,59.14
2023-04-28T06:55:53.022Z,59.87
2023-04-28T06:58:21.895Z,58.02
2023-04-28T07:00:49.689Z,58.03
2023-04-28T07:03:17.771Z,57.39
2023-04-28T07:05:46.297Z,56.70
2023-04-28T07:08:14.147Z,56.20
2023-04-28T07:10:42.289Z,55.60
2023-04-28T07:13:10.618Z,55.02
2023-04-28T07:15:38.778Z,53.57
2023-04-28T07:18:07.530Z,54.63
2023-04-28T07:20:35.516Z,54.00
2023-04-28T07:23:03.473Z,53.18
2023-04-28T07:25:32.121Z,52.79
2023-04-28T07:27:59.990Z,50.89
2023-04-28T07:30:28.429Z,50.61
2023-04-28T07:32:56.391Z,49.65
2023-04-28T07:49:04.786Z,43.33
2023-04-28T07:51:32.598Z,44.64
2023-04-28T07:54:00.584Z,44.94
2023-04-28T07:56:28.304Z,44.87
2023-04-28T07:58:57.131Z,44.27
2023-04-28T08:01:25.216Z,44.61
2023-04-28T08:03:53.171Z,44.82
2023-04-28T08:06:21.208Z,42.70
2023-04-28T08:08:49.289Z,43.28
2023-04-28T08:11:17.032Z,43.47
2023-04-28T08:13:44.785Z,42.21
2023-04-28T08:16:12.795Z,40.57
2023-04-28T08:18:40.942Z,39.34
2023-04-28T08:21:09.711Z,38.88
2023-04-28T08:23:37.546Z,39.12
2023-04-28T08:26:05.849Z,38.42
2023-04-28T08:28:34.097Z,38.02
2023-04-28T08:31:01.958Z,37.65
2023-04-28T08:33:29.712Z,36.94
2023-04-28T08:35:57.745Z,36.01
2023-04-28T08:38:26.619Z,35.87
2023-04-28T08:40:54.411Z,36.45
2023-04-28T08:43:22.495Z,35.11
2023-04-28T08:45:50.308Z,35.12
2023-04-28T08:48:23.326Z,35.22
2023-04-28T08:50:53.487Z,34.74
2023-04-28T08:53:26.911Z,34.89
2023-04-28T08:55:56.977Z,34.83
2023-04-28T08:58:26.491Z,34.76
2023-04-28T09:00:54.721Z,35.41
2023-04-28T09:03:22.728Z,35.93
2023-04-28T09:05:50.925Z,37.19
2023-04-28T09:08:19.164Z,37.30
2023-04-28T09:10:47.086Z,37.08
2023-04-28T09:13:33.468Z,35.87
2023-04-28T09:16:03.216Z,37.24
2023-04-28T09:18:34.608Z,37.09
2023-04-28T09:21:08.359Z,36.12
2023-04-28T09:23:49.355Z,36.25
2023-04-28T09:26:17.177Z,36.93
2023-04-28T09:28:44.866Z,38.00
2023-04-28T09:31:25.174Z,37.89
2023-04-28T09:34:00.309Z,37.38
2023-04-28T09:36:30.996Z,36.41
2023-04-28T09:39:00.313Z,35.76
2023-04-28T09:41:42.794Z,35.63
2023-04-28T09:44:11.876Z,34.68
2023-04-28T09:46:40.347Z,33.86
2023-04-28T09:49:08.809Z,32.41
2023-04-28T09:51:36.893Z,33.47
2023-04-28T09:54:05.074Z,34.15
2023-04-28T09:56:35.004Z,34.99
2023-04-28T09:59:02.924Z,34.85
2023-04-28T10:01:39.020Z,35.04
2023-04-28T10:04:09.783Z,34.26
2023-04-28T10:06:38.093Z,34.00
2023-04-28T10:09:06.807Z,34.64
2023-04-28T10:11:35.337Z,35.15
2023-04-28T10:14:03.287Z,33.95
2023-04-28T10:16:33.280Z,34.07
2023-04-28T10:19:03.353Z,34.38
2023-04-28T10:21:35.764Z,34.83
2023-04-28T10:24:15.076Z,35.18
2023-04-28T10:27:02.081Z,35.83
2023-04-28T10:29:32.527Z,36.01
2023-04-28T10:32:24.111Z,35.68
2023-04-28T10:34:52.595Z,35.98
2023-04-28T10:37:20.965Z,36.29
2023-04-28T10:40:34.649Z,36.15
2023-04-28T10:43:03.468Z,35.56
2023-04-28T10:45:56.258Z,34.56
2023-04-28T10:48:33.879Z,33.24
2023-04-28T10:51:07.924Z,32.30
2023-04-28T10:53:54.269Z,32.25
2023-04-28T10:56:27.155Z,31.91
2023-04-28T10:58:56.080Z,30.33
2023-04-28T11:01:29.753Z,30.23
2023-04-28T11:04:03.637Z,29.69
2023-04-28T11:06:35.940Z,30.02
2023-04-28T11:09:32.932Z,28.84
2023-04-28T11:12:00.835Z,30.22
2023-04-28T11:14:29.997Z,30.34
2023-04-28T11:17:13.450Z,29.96
2023-04-28T11:19:43.862Z,30.50
2023-04-28T11:22:20.617Z,29.82
2023-04-28T11:25:01.919Z,29.58
2023-04-28T11:27:31.421Z,29.65
2023-04-28T11:30:00.218Z,30.28
2023-04-28T11:32:30.791Z,29.04
2023-04-28T11:34:58.646Z,28.75
2023-04-28T11:37:27.228Z,28.78
2023-04-28T11:39:55.146Z,28.57
2023-04-28T11:42:26.248Z,28.92
2023-04-28T11:44:55.035Z,28.28
2023-04-28T11:47:31.438Z,28.22
2023-04-28T11:49:59.395Z,28.39
2023-04-28T11:52:27.643Z,29.34
2023-04-28T11:55:03.036Z,29.46
2023-04-28T11:57:30.871Z,29.17
2023-04-28T12:00:22.131Z,29.12
2023-04-28T12:02:50.882Z,29.72
2023-04-28T12:05:22.169Z,30.30
2023-04-28T12:07:50.384Z,30.66
2023-04-28T12:10:19.799Z,31.43
2023-04-28T12:12:52.826Z,31.75
2023-04-28T12:15:22.693Z,31.57
2023-04-28T12:17:51.609Z,31.09
2023-04-28T12:20:39.357Z,30.90
2023-04-28T12:23:08.534Z,31.04
2023-04-28T12:25:46.257Z,31.16
2023-04-28T12:28:14.064Z,31.54
2023-04-28T12:30:42.804Z,31.26
2023-04-28T12:33:24.682Z,32.16
2023-04-28T12:35:57.891Z,32.00
2023-04-28T12:38:27.224Z,31.96
2023-04-28T12:40:55.190Z,31.88
2023-04-28T12:43:24.184Z,32.15
2023-04-28T12:45:56.567Z,32.99
2023-04-28T12:48:25.183Z,32.14
2023-04-28T12:50:53.092Z,32.55
2023-04-28T12:53:20.947Z,32.04
2023-04-28T12:55:48.903Z,33.09
2023-04-28T12:58:17.935Z,32.26
2023-04-28T13:00:45.737Z,31.69
2023-04-28T13:03:13.613Z,31.82
2023-04-28T13:05:41.481Z,31.34
2023-04-28T13:08:09.597Z,31.01
2023-04-28T13:10:37.396Z,31.43
2023-04-28T13:13:05.608Z,31.72
2023-04-28T13:15:33.417Z,31.59
2023-04-28T13:18:01.188Z,31.01
2023-04-28T13:20:29.019Z,31.16
2023-04-28T13:22:56.737Z,31.04
2023-04-28T13:25:25.192Z,30.50
2023-04-28T13:27:52.976Z,30.60
2023-04-28T13:30:20.894Z,30.46
2023-04-28T13:32:49.444Z,30.36
2023-04-28T13:35:17.848Z,30.54
2023-04-28T13:37:46.222Z,30.85
2023-04-28T13:40:13.988Z,31.05
2023-04-28T13:42:41.759Z,30.83
2023-04-28T13:45:09.971Z,30.95
2023-04-28T13:47:38.140Z,30.34
2023-04-28T13:50:06.651Z,30.49
2023-04-28T13:52:34.474Z,31.03
2023-04-28T13:55:02.341Z,31.44
2023-04-28T13:57:30.520Z,31.70
2023-04-28T13:59:58.328Z,30.86
2023-04-28T14:02:27.456Z,31.03
2023-04-28T14:04:55.951Z,31.27
2023-04-28T14:07:23.823Z,31.32
2023-04-28T14:09:51.692Z,31.78
2023-04-28T14:12:19.406Z,31.76
2023-04-28T14:14:49.576Z,31.08
2023-04-28T14:17:17.640Z,30.90
2023-04-28T14:19:45.905Z,31.19
2023-04-28T14:22:13.625Z,30.81
2023-04-28T14:24:43.084Z,30.79
2023-04-28T14:27:11.118Z,30.87
2023-04-28T14:29:39.094Z,30.98
2023-04-28T14:32:07.255Z,31.04
2023-04-28T14:34:34.978Z,31.63
2023-04-28T14:37:02.795Z,31.74
2023-04-28T14:39:30.630Z,31.69
2023-04-28T14:41:58.375Z,31.59
2023-04-28T14:44:26.092Z,32.04
2023-04-28T14:46:54.357Z,31.52
2023-04-28T14:49:23.061Z,31.19
2023-04-28T14:51:50.893Z,30.92
2023-04-28T14:54:18.923Z,31.36
2023-04-28T14:56:46.607Z,31.58
2023-04-28T14:59:14.395Z,31.46
2023-04-28T15:01:42.539Z,31.82
2023-04-28T15:04:10.410Z,32.35
2023-04-28T15:06:38.269Z,31.78
2023-04-28T15:09:06.239Z,31.44
2023-04-28T15:11:34.187Z,31.23
2023-04-28T15:14:01.976Z,30.71
2023-04-28T15:16:29.804Z,30.78
2023-04-28T15:18:58.117Z,30.73
2023-04-28T15:21:26.314Z,30.36
2023-04-28T15:23:54.498Z,30.87
2023-04-28T15:26:23.625Z,30.84
2023-04-28T15:28:51.415Z,30.87
2023-04-28T15:31:19.507Z,30.97
2023-04-28T15:33:47.718Z,31.62
2023-04-28T15:36:15.606Z,31.01
2023-04-28T15:38:45.450Z,31.49
2023-04-28T15:41:15.082Z,31.46
2023-04-28T15:43:44.485Z,32.03
2023-04-28T15:46:14.931Z,32.49
2023-04-28T15:48:43.798Z,32.30
2023-04-28T15:51:11.739Z,32.37
2023-04-28T15:53:40.024Z,32.15
2023-04-28T15:56:08.290Z,32.29
2023-04-28T15:58:36.493Z,32.40
2023-04-28T16:01:05.137Z,32.68
2023-04-28T16:03:33.035Z,32.66
2023-04-28T16:06:01.210Z,32.69
2023-04-28T16:08:29.376Z,33.28
2023-04-28T16:10:57.371Z,33.95
2023-04-28T16:13:25.136Z,34.10
2023-04-28T16:15:53.227Z,34.39
2023-04-28T16:18:21.149Z,34.59
2023-04-28T16:20:49.167Z,34.78
2023-04-28T16:23:16.922Z,34.86
2023-04-28T16:25:44.861Z,34.78
2023-04-28T16:28:12.617Z,35.40
2023-04-28T16:30:41.144Z,35.42
2023-04-28T16:33:09.095Z,35.27
2023-04-28T16:35:36.901Z,35.71
2023-04-28T16:38:05.233Z,35.90
2023-04-28T16:40:32.998Z,36.22
2023-04-28T16:43:00.844Z,36.43
2023-04-28T16:45:29.265Z,36.89
2023-04-28T16:47:57.388Z,37.06
2023-04-28T16:50:25.138Z,37.30
2023-04-28T16:52:52.960Z,37.49
2023-04-28T16:55:20.792Z,37.71
2023-04-28T16:57:48.863Z,38.16
2023-04-28T17:00:17.370Z,38.31
2023-04-28T17:02:45.236Z,38.63
2023-04-28T17:05:13.301Z,39.17
2023-04-28T17:07:41.313Z,39.27
2023-04-28T17:10:09.659Z,39.58
2023-04-28T17:12:37.588Z,39.60
2023-04-28T17:15:09.505Z,39.87
2023-04-28T17:17:37.846Z,40.01
2023-04-28T17:20:06.360Z,40.26
2023-04-28T17:22:35.369Z,40.48
2023-04-28T17:25:03.802Z,40.88
2023-04-28T17:27:31.844Z,41.19
2023-04-28T17:29:59.713Z,41.33
2023-04-28T17:32:30.748Z,41.61
2023-04-28T17:34:58.933Z,41.64
2023-04-28T17:37:26.719Z,42.11
2023-04-28T17:39:54.457Z,42.18
2023-04-28T17:42:22.279Z,42.57
2023-04-28T17:44:50.923Z,42.95
2023-04-28T17:47:19.438Z,43.26
2023-04-28T17:49:47.149Z,43.14
2023-04-28T17:52:15.526Z,43.21
2023-04-28T17:54:43.885Z,43.64
2023-04-28T17:57:12.436Z,43.79
2023-04-28T17:59:40.701Z,44.23
2023-04-28T18:02:11.920Z,45.16
2023-04-28T18:04:40.176Z,45.30
2023-04-28T18:07:08.268Z,45.44
2023-04-28T18:09:36.061Z,45.55
2023-04-28T18:12:07.137Z,46.23
2023-04-28T18:14:35.049Z,46.91
2023-04-28T18:17:03.011Z,47.29
2023-04-28T18:19:31.065Z,47.89
2023-04-28T18:21:59.046Z,47.37
2023-04-28T18:24:26.808Z,47.30
2023-04-28T18:26:54.712Z,47.16
2023-04-28T18:29:22.604Z,48.83
2023-04-28T18:31:51.487Z,49.70
2023-04-28T18:34:19.936Z,50.10
2023-04-28T18:36:47.734Z,50.11
2023-04-28T18:39:15.654Z,50.91
2023-04-28T18:41:44.220Z,50.53
2023-04-28T18:44:12.005Z,50.83
2023-04-28T18:46:40.193Z,51.16
2023-04-28T18:49:07.972Z,50.80
2023-04-28T18:51:36.040Z,50.49
2023-04-28T18:54:04.843Z,50.14
2023-04-28T18:56:32.656Z,50.49
2023-04-28T18:59:00.621Z,50.80
2023-04-28T19:01:28.579Z,51.35
2023-04-28T19:03:56.789Z,50.63
2023-04-28T19:06:24.950Z,50.64
2023-04-28T19:08:53.262Z,51.11
2023-04-28T19:11:21.268Z,50.97
2023-04-28T19:13:50.279Z,51.21
2023-04-28T19:16:18.654Z,51.45
2023-04-28T19:18:46.503Z,50.97
2023-04-28T19:21:14.410Z,51.50
2023-04-28T19:23:42.324Z,51.37
2023-04-28T19:26:10.454Z,51.68
2023-04-28T19:28:38.294Z,51.90
2023-04-28T19:31:06.120Z,51.57
2023-04-28T19:33:33.883Z,51.89
2023-04-28T19:36:01.682Z,51.83
2023-04-28T19:38:29.513Z,52.00
2023-04-28T19:41:01.162Z,52.70
2023-04-28T19:43:29.883Z,52.28
2023-04-28T19:45:57.983Z,52.82
2023-04-28T19:48:28.780Z,52.56
2023-04-28T19:50:57.322Z,53.28
2023-04-28T19:53:25.116Z,53.28
2023-04-28T19:55:53.143Z,53.29
2023-04-28T19:58:22.295Z,53.27
2023-04-28T20:00:50.071Z,53.45
2023-04-28T20:03:18.087Z,53.50
2023-04-28T20:05:46.017Z,53.36
2023-04-28T20:08:13.969Z,53.47
2023-04-28T20:10:42.470Z,53.72
2023-04-28T20:13:10.161Z,53.83
2023-04-28T20:15:38.050Z,53.87
2023-04-28T20:18:06.211Z,53.91
2023-04-28T20:20:34.317Z,53.78
2023-04-28T20:23:02.154Z,53.71
2023-04-28T20:25:30.036Z,54.09
2023-04-28T20:27:58.197Z,54.02
2023-04-28T20:30:27.753Z,54.20
2023-04-28T20:32:55.522Z,54.33
2023-04-28T20:35:23.341Z,54.00
2023-04-28T20:37:51.121Z,54.34
2023-04-28T20:40:18.908Z,54.48
2023-04-28T20:42:46.621Z,54.42
2023-04-28T20:45:14.394Z,54.73
2023-04-28T20:47:42.487Z,54.93
2023-04-28T20:50:11.589Z,54.78
2023-04-28T20:52:39.452Z,55.06
2023-04-28T20:55:08.525Z,55.28
2023-04-28T20:57:36.224Z,55.15
2023-04-28T21:00:05.279Z,55.15
2023-04-28T21:02:33.340Z,55.17
2023-04-28T21:05:01.743Z,55.47
2023-04-28T21:07:29.545Z,55.55
2023-04-28T21:09:58.091Z,55.69
2023-04-28T21:12:25.948Z,55.82
2023-04-28T21:14:53.770Z,56.17
2023-04-28T21:17:21.471Z,56.16
2023-04-28T21:19:49.475Z,56.04
2023-04-28T21:22:17.570Z,56.51
2023-04-28T21:24:45.290Z,56.54
2023-04-28T21:27:13.054Z,56.48
2023-04-28T21:29:40.897Z,56.77
2023-04-28T21:32:09.309Z,56.96
2023-04-28T21:34:37.355Z,56.94
2023-04-28T21:37:05.714Z,57.19
2023-04-28T21:39:33.939Z,57.45
2023-04-28T21:42:01.830Z,57.23
2023-04-28T21:44:29.944Z,58.12
2023-04-28T21:46:57.841Z,58.18
2023-04-28T21:49:25.988Z,57.90
2023-04-28T21:51:53.776Z,58.49
2023-04-28T21:54:21.652Z,58.43
2023-04-28T21:56:49.664Z,58.62
2023-04-28T21:59:18.072Z,58.66
2023-04-28T22:01:46.506Z,58.66
2023-04-28T22:04:15.120Z,59.18
2023-04-28T22:06:44.993Z,59.55
2023-04-28T22:09:13.660Z,59.57
2023-04-28T22:11:41.575Z,59.11
2023-04-28T22:14:11.990Z,59.76
2023-04-28T22:16:43.129Z,59.97
2023-04-28T22:19:11.467Z,59.82
2023-04-28T22:21:39.778Z,60.00
2023-04-28T22:24:08.269Z,60.10
2023-04-28T22:26:36.598Z,60.29
2023-04-28T22:29:04.336Z,60.43
2023-04-28T22:31:32.363Z,60.55
2023-04-28T22:34:00.080Z,60.25
2023-04-28T22:36:28.207Z,60.77
2023-04-28T22:38:56.160Z,60.65
2023-04-28T22:41:24.589Z,60.75
2023-04-28T22:43:53.441Z,60.69
2023-04-28T22:46:21.182Z,60.90
2023-04-28T22:48:49.892Z,61.07
2023-04-28T22:51:17.642Z,61.14
2023-04-28T22:53:46.738Z,60.96
2023-04-28T22:56:16.131Z,61.52
2023-04-28T22:58:44.785Z,61.43
2023-04-28T23:01:12.706Z,61.48
2023-04-28T23:03:41.663Z,61.58
2023-04-28T23:06:09.669Z,62.16
2023-04-28T23:08:37.504Z,62.21
2023-04-28T23:11:06.803Z,62.10
2023-04-28T23:13:34.910Z,62.17
2023-04-28T23:16:02.707Z,61.91
2023-04-28T23:18:32.761Z,62.17
2023-04-28T23:21:00.642Z,62.48
2023-04-28T23:23:28.387Z,62.41
2023-04-28T23:25:56.835Z,62.20
2023-04-28T23:28:24.727Z,62.80
2023-04-28T23:30:52.493Z,62.87
2023-04-28T23:33:20.322Z,63.00
2023-04-28T23:35:48.259Z,62.60
2023-04-28T23:38:16.866Z,62.90
2023-04-28T23:40:44.634Z,63.19
2023-04-28T23:43:14.678Z,63.56
2023-04-28T23:45:42.790Z,63.93
2023-04-28T23:48:11.147Z,63.85
2023-04-28T23:50:38.934Z,63.62
2023-04-28T23:53:06.758Z,63.66
2023-04-28T23:55:34.479Z,64.06
2023-04-28T23:58:02.180Z,64.04
